Hlavní strana
METAR-TAF:

METAR-TAF

Letiště :

Çanakkale, Turecko

zeměpisná šířka: 40-08N, zeměpisná délka: 026-24E, výška: 3 m

Aktuální stav počasí

Zpráva byla vytvořena před 38 minutami, v 11:50 UTC
Jihojihozápadní vítr 18 kt
Teplota 16°C
Vlhkost vzduchu 68%
Tlak 1010 hPa
Viditelnost 10 km a více
Skoro jasno ve výšce 3500 ft
Polojasno ve výšce 10000 ft
Oblačno až skoro zataženo ve výšce 20000 ft

METAR: LTBH 291150Z 21018KT 9999 FEW035 SCT100 BKN200 16/10 Q1010

Čas: 15:28 (12:28 UTC)

Předpověď počasí

Zpráva byla vytvořena před 1 hodinou a 48 minutami, v 10:40 UTC
Předpověď platná od 29 v 12 UTC do 29 v 21 UTC
Jižní vítr 15 kt s nárazy do 28 kt
Viditelnost 10 km a více
Polojasno ve výšce 3500 ft
Oblačno až skoro zataženo ve výšce 10000 ft
Změna
od 29 v 15 UTC do 29 v 18 UTC
Jihojihozápadní vítr 5 kt
Dočasný
od 29 v 18 UTC do 29 v 21 UTC
slabé dešťové přeháňky

TAF: LTBH 291040Z 2912/2921 19015G28KT 9999 SCT035 BKN100 BECMG 2915/2918 20005KT TEMPO 2918/2921 -SHRA

Stav a předpovědi počasí z více než 4 000 letišť (zprávy METAR a TAF).

Červené a žluté tečky na mapě představují dostupné meteorologické stanice.

Když kurzor umístíte na tečku, zobrazí se název stanice.

Pak kliknutím zobrazíte stav a předpověď počasí.

Chcete-li změnit mapu, kliknutím na zelené tlačítko se znaménkem +mapu přiblížíte, kliknutím na zelené tlačítko se znaménkem – mapu oddálíte a kliknutím na zelené šipky přejdete na sousední mapy.


METAR-TAF: